createdAt,value
2022-08-01T00:00:31.228Z,20.81
2022-08-01T00:01:31.161Z,20.79
2022-08-01T00:02:31.195Z,20.76
2022-08-01T00:03:31.198Z,20.78
2022-08-01T00:04:31.135Z,20.78
2022-08-01T00:05:31.115Z,20.76
2022-08-01T00:06:31.128Z,20.78
2022-08-01T00:07:31.113Z,20.78
2022-08-01T00:08:31.145Z,20.78
2022-08-01T00:09:31.054Z,20.76
2022-08-01T00:10:31.160Z,20.78
2022-08-01T00:11:31.050Z,20.78
2022-08-01T00:12:31.038Z,20.75
2022-08-01T00:13:31.106Z,20.76
2022-08-01T00:14:32.671Z,20.75
2022-08-01T00:15:30.988Z,20.75
2022-08-01T00:16:30.963Z,20.74
2022-08-01T00:17:30.963Z,20.75
2022-08-01T00:18:30.973Z,20.75
2022-08-01T00:19:30.925Z,20.74
2022-08-01T00:20:30.929Z,20.72
2022-08-01T00:21:30.948Z,20.75
2022-08-01T00:22:30.944Z,20.75
2022-08-01T00:23:30.950Z,20.76
2022-08-01T00:24:30.874Z,20.76
2022-08-01T00:25:34.222Z,20.76
2022-08-01T00:26:30.865Z,20.78
2022-08-01T00:27:30.822Z,20.76
2022-08-01T00:28:30.879Z,20.76
2022-08-01T00:30:11.698Z,20.75
2022-08-01T00:30:31.786Z,20.75
2022-08-01T00:31:30.842Z,20.76
2022-08-01T00:32:30.834Z,20.75
2022-08-01T00:33:30.752Z,20.75
2022-08-01T00:34:30.734Z,20.75
2022-08-01T00:35:30.728Z,20.75
2022-08-01T00:36:30.744Z,20.76
2022-08-01T00:37:30.740Z,20.75
2022-08-01T00:38:30.720Z,20.74
2022-08-01T00:39:30.682Z,20.74
2022-08-01T00:40:30.723Z,20.72
2022-08-01T00:41:30.636Z,20.72
2022-08-01T00:42:30.645Z,20.72
2022-08-01T00:43:30.674Z,20.74
2022-08-01T00:44:30.617Z,20.71
2022-08-01T00:45:30.618Z,20.72
2022-08-01T00:46:30.622Z,20.72
2022-08-01T00:47:30.590Z,20.74
2022-08-01T00:48:30.551Z,20.71
2022-08-01T00:49:30.617Z,20.74
2022-08-01T00:50:30.563Z,20.68
2022-08-01T00:51:30.536Z,20.71
2022-08-01T00:52:30.547Z,20.71
2022-08-01T00:53:50.798Z,20.68
2022-08-01T00:54:31.540Z,20.68
2022-08-01T00:55:30.577Z,20.66
2022-08-01T00:56:30.450Z,20.67
2022-08-01T00:57:41.456Z,20.66
2022-08-01T00:58:31.459Z,20.64
2022-08-01T00:59:30.425Z,20.63
2022-08-01T01:00:30.496Z,20.63
2022-08-01T01:01:39.362Z,20.60
2022-08-01T01:02:31.450Z,20.60
2022-08-01T01:03:56.408Z,20.58
2022-08-01T01:04:31.366Z,20.57
2022-08-01T01:05:33.543Z,20.53
2022-08-01T01:06:31.371Z,20.49
2022-08-01T01:07:30.315Z,20.49
2022-08-01T01:08:30.296Z,20.48
2022-08-01T01:09:30.301Z,20.46
2022-08-01T01:10:30.324Z,20.44
2022-08-01T01:11:30.267Z,20.44
2022-08-01T01:12:30.302Z,20.42
2022-08-01T01:13:31.284Z,20.42
2022-08-01T01:14:30.243Z,20.38
2022-08-01T01:15:30.254Z,20.37
2022-08-01T01:16:30.206Z,20.34
2022-08-01T01:17:31.250Z,20.29
2022-08-01T01:18:31.186Z,20.27
2022-08-01T01:19:30.205Z,20.25
2022-08-01T01:20:30.284Z,20.22
2022-08-01T01:21:30.155Z,20.19
2022-08-01T01:22:30.196Z,20.15
2022-08-01T01:23:30.124Z,20.12
2022-08-01T01:24:30.110Z,20.08
2022-08-01T01:25:30.086Z,20.07
2022-08-01T01:26:30.114Z,20.04
2022-08-01T01:27:30.054Z,20.01
2022-08-01T01:28:30.054Z,20.00
2022-08-01T01:29:30.035Z,19.97
2022-08-01T01:30:31.023Z,19.93
2022-08-01T01:31:30.033Z,19.90
2022-08-01T01:32:30.885Z,19.89
2022-08-01T01:33:29.982Z,19.87
2022-08-01T01:34:30.005Z,19.85
2022-08-01T01:35:29.951Z,19.83
2022-08-01T01:36:29.962Z,19.80
2022-08-01T01:37:29.942Z,19.79
2022-08-01T01:38:29.912Z,19.78
2022-08-01T01:39:29.929Z,19.75
2022-08-01T01:40:29.922Z,19.74
2022-08-01T01:41:29.916Z,19.72
2022-08-01T01:42:29.862Z,19.70
2022-08-01T01:43:33.221Z,19.67
2022-08-01T01:44:29.866Z,19.65
2022-08-01T01:45:29.833Z,19.63
2022-08-01T01:46:29.816Z,19.61
2022-08-01T01:47:29.804Z,19.60
2022-08-01T01:48:29.893Z,19.57
2022-08-01T01:49:29.807Z,19.56
2022-08-01T01:50:29.850Z,19.53
2022-08-01T01:51:29.782Z,19.52
2022-08-01T01:52:29.774Z,19.50
2022-08-01T01:53:29.796Z,19.47
2022-08-01T01:54:29.749Z,19.47
2022-08-01T01:55:29.720Z,19.45
2022-08-01T01:56:29.708Z,19.45
2022-08-01T01:57:29.658Z,19.42
2022-08-01T01:58:29.691Z,19.40
2022-08-01T01:59:29.662Z,19.38
2022-08-01T02:00:29.648Z,19.37
2022-08-01T02:01:58.869Z,19.37
2022-08-01T02:02:30.648Z,19.34
2022-08-01T02:03:29.616Z,19.32
2022-08-01T02:04:29.638Z,19.32
2022-08-01T02:05:29.764Z,19.30
2022-08-01T02:06:29.557Z,19.28
2022-08-01T02:07:29.536Z,19.27
2022-08-01T02:08:29.542Z,19.24
2022-08-01T02:09:29.537Z,19.24
2022-08-01T02:10:29.512Z,19.23
2022-08-01T02:11:29.478Z,19.20
2022-08-01T02:12:29.482Z,19.17
2022-08-01T02:13:29.545Z,19.17
2022-08-01T02:14:29.482Z,19.15
2022-08-01T02:15:29.494Z,19.13
2022-08-01T02:16:29.458Z,19.09
2022-08-01T02:17:29.404Z,19.09
2022-08-01T02:18:29.445Z,19.07
2022-08-01T02:19:29.383Z,19.07
2022-08-01T02:20:29.383Z,19.06
2022-08-01T02:21:29.353Z,19.05
2022-08-01T02:22:29.354Z,19.00
2022-08-01T02:23:29.404Z,18.97
2022-08-01T02:24:30.690Z,18.96
2022-08-01T02:25:29.322Z,18.94
2022-08-01T02:26:29.342Z,18.93
2022-08-01T02:27:29.288Z,18.93
2022-08-01T02:28:29.349Z,18.90
2022-08-01T02:29:29.302Z,18.91
2022-08-01T02:30:29.283Z,18.89
2022-08-01T02:31:29.229Z,18.87
2022-08-01T02:32:29.290Z,18.86
2022-08-01T02:33:29.348Z,18.84
2022-08-01T02:34:29.221Z,18.81
2022-08-01T02:35:29.211Z,18.79
2022-08-01T02:36:31.985Z,18.79
2022-08-01T02:37:29.189Z,18.79
2022-08-01T02:38:29.161Z,18.76
2022-08-01T02:39:29.120Z,18.78
2022-08-01T02:40:29.134Z,18.76
2022-08-01T02:41:29.159Z,18.75
2022-08-01T02:42:29.111Z,18.75
2022-08-01T02:43:29.069Z,18.74
2022-08-01T02:44:29.078Z,18.72
2022-08-01T02:45:29.082Z,18.71
2022-08-01T02:46:29.048Z,18.69
2022-08-01T02:47:29.057Z,18.66
2022-08-01T02:48:29.019Z,18.65
2022-08-01T02:49:29.121Z,18.63
2022-08-01T02:50:28.990Z,18.61
2022-08-01T02:51:28.988Z,18.60
2022-08-01T02:52:28.978Z,18.56
2022-08-01T02:53:44.209Z,18.56
2022-08-01T02:54:29.984Z,18.53
2022-08-01T02:55:28.936Z,18.51
2022-08-01T02:56:28.916Z,18.50
2022-08-01T02:57:33.598Z,18.50
2022-08-01T02:58:30.386Z,18.49
2022-08-01T02:59:28.896Z,18.47
2022-08-01T03:00:28.892Z,18.45
2022-08-01T03:01:29.240Z,18.44
2022-08-01T03:02:28.853Z,18.41
2022-08-01T03:03:28.815Z,18.41
2022-08-01T03:04:28.812Z,18.38
2022-08-01T03:05:28.797Z,18.35
2022-08-01T03:06:28.792Z,18.34
2022-08-01T03:07:34.235Z,18.29
2022-08-01T03:08:29.804Z,18.27
2022-08-01T03:09:28.773Z,18.24
2022-08-01T03:10:28.763Z,18.23
2022-08-01T03:11:28.741Z,18.23
2022-08-01T03:12:28.737Z,18.21
2022-08-01T03:13:28.700Z,18.20
2022-08-01T03:14:28.683Z,18.16
2022-08-01T03:15:28.661Z,18.16
2022-08-01T03:16:28.663Z,18.13
2022-08-01T03:17:28.636Z,18.13
2022-08-01T03:18:28.693Z,18.11
2022-08-01T03:19:28.612Z,18.10
2022-08-01T03:20:28.601Z,18.05
2022-08-01T03:21:28.593Z,18.05
2022-08-01T03:22:28.598Z,18.03
2022-08-01T03:23:29.134Z,18.03
2022-08-01T03:24:29.560Z,18.02
2022-08-01T03:25:28.545Z,18.01
2022-08-01T03:26:28.588Z,17.98
2022-08-01T03:27:28.609Z,17.96
2022-08-01T03:28:29.768Z,17.95
2022-08-01T03:29:28.512Z,17.94
2022-08-01T03:30:28.471Z,17.92
2022-08-01T03:31:28.471Z,17.90
2022-08-01T03:32:28.451Z,17.87
2022-08-01T03:33:28.428Z,17.86
2022-08-01T03:34:28.448Z,17.86
2022-08-01T03:35:28.409Z,17.83
2022-08-01T03:36:28.433Z,17.83
2022-08-01T03:37:28.397Z,17.81
2022-08-01T03:38:28.402Z,17.81
2022-08-01T03:39:28.381Z,17.77
2022-08-01T03:40:28.346Z,17.77
2022-08-01T03:41:28.339Z,17.74
2022-08-01T03:42:28.325Z,17.74
2022-08-01T03:43:28.306Z,17.71
2022-08-01T03:44:28.294Z,17.71
2022-08-01T03:45:28.285Z,17.69
2022-08-01T03:46:28.279Z,17.68
2022-08-01T03:47:28.284Z,17.66
2022-08-01T03:48:28.273Z,17.66
2022-08-01T03:49:28.346Z,17.65
2022-08-01T03:50:28.232Z,17.63
2022-08-01T03:51:28.204Z,17.62
2022-08-01T03:52:28.226Z,17.60
2022-08-01T03:53:28.214Z,17.62
2022-08-01T03:54:28.203Z,17.60
2022-08-01T03:55:28.147Z,17.58
2022-08-01T03:56:28.219Z,17.57
2022-08-01T03:57:36.792Z,17.57
2022-08-01T03:58:29.112Z,17.57
2022-08-01T03:59:28.134Z,17.55
2022-08-01T04:00:28.103Z,17.55
2022-08-01T04:01:28.201Z,17.55
2022-08-01T04:02:28.094Z,17.50
2022-08-01T04:03:28.053Z,17.52
2022-08-01T04:04:28.043Z,17.52
2022-08-01T04:05:28.052Z,17.50
2022-08-01T04:06:28.021Z,17.50
2022-08-01T04:07:28.045Z,17.50
2022-08-01T04:08:29.990Z,17.49
2022-08-01T04:09:28.931Z,17.49
2022-08-01T04:10:27.959Z,17.49
2022-08-01T04:11:27.949Z,17.47
2022-08-01T04:12:27.941Z,17.46
2022-08-01T04:13:29.253Z,17.45
2022-08-01T04:14:28.918Z,17.43
2022-08-01T04:15:27.901Z,17.42
2022-08-01T04:16:27.981Z,17.42
2022-08-01T04:17:27.898Z,17.40
2022-08-01T04:18:27.848Z,17.42
2022-08-01T04:19:27.881Z,17.40
2022-08-01T04:20:27.840Z,17.39
2022-08-01T04:21:27.862Z,17.40
2022-08-01T04:22:27.805Z,17.42
2022-08-01T04:23:27.807Z,17.40
2022-08-01T04:24:27.799Z,17.40
2022-08-01T04:25:27.782Z,17.42
2022-08-01T04:26:27.777Z,17.40
2022-08-01T04:27:50.334Z,17.40
2022-08-01T04:28:28.744Z,17.40
2022-08-01T04:29:27.722Z,17.40
2022-08-01T04:30:27.693Z,17.40
2022-08-01T04:31:27.745Z,17.40
2022-08-01T04:32:27.670Z,17.40
2022-08-01T04:33:27.682Z,17.40
2022-08-01T04:34:27.652Z,17.42
2022-08-01T04:36:02.463Z,17.42
2022-08-01T04:36:28.647Z,17.43
2022-08-01T04:37:27.614Z,17.42
2022-08-01T04:38:27.611Z,17.43
2022-08-01T04:39:27.649Z,17.46
2022-08-01T04:40:27.564Z,17.45
2022-08-01T04:41:27.602Z,17.47
2022-08-01T04:42:30.222Z,17.49
2022-08-01T04:43:28.553Z,17.49
2022-08-01T04:44:32.265Z,17.52
2022-08-01T04:45:28.505Z,17.54
2022-08-01T04:46:27.490Z,17.55
2022-08-01T04:47:27.471Z,17.57
2022-08-01T04:48:27.481Z,17.58
2022-08-01T04:49:27.497Z,17.62
2022-08-01T04:50:27.451Z,17.66
2022-08-01T04:51:27.449Z,17.66
2022-08-01T04:52:27.403Z,17.71
2022-08-01T04:53:27.410Z,17.73
2022-08-01T04:54:27.406Z,17.77
2022-08-01T04:55:27.401Z,17.79
2022-08-01T04:56:27.358Z,17.80
2022-08-01T04:57:27.358Z,17.86
2022-08-01T04:58:27.329Z,17.88
2022-08-01T04:59:27.341Z,17.94
2022-08-01T05:00:27.341Z,17.96
2022-08-01T05:01:27.409Z,18.01
2022-08-01T05:02:27.287Z,18.05
2022-08-01T05:03:27.299Z,18.08
2022-08-01T05:04:27.355Z,18.14
2022-08-01T05:05:27.299Z,18.17
2022-08-01T05:06:27.237Z,18.21
2022-08-01T05:07:27.216Z,18.23
2022-08-01T05:08:27.200Z,18.27
2022-08-01T05:09:31.107Z,18.31
2022-08-01T05:10:27.215Z,18.32
2022-08-01T05:11:27.185Z,18.35
2022-08-01T05:12:27.205Z,18.36
2022-08-01T05:13:27.136Z,18.39
2022-08-01T05:14:27.135Z,18.44
2022-08-01T05:15:27.155Z,18.44
2022-08-01T05:16:27.103Z,18.45
2022-08-01T05:17:27.134Z,18.49
2022-08-01T05:18:28.365Z,18.50
2022-08-01T05:19:27.234Z,18.53
2022-08-01T05:20:27.104Z,18.56
2022-08-01T05:21:27.052Z,18.56
2022-08-01T05:22:28.001Z,18.59
2022-08-01T05:23:42.352Z,18.60
2022-08-01T05:24:28.033Z,18.63
2022-08-01T05:25:56.325Z,18.66
2022-08-01T05:26:28.043Z,18.68
2022-08-01T05:27:26.989Z,18.69
2022-08-01T05:28:27.069Z,18.71
2022-08-01T05:29:26.986Z,18.75
2022-08-01T05:30:26.928Z,18.78
2022-08-01T05:31:26.941Z,18.78
2022-08-01T05:32:27.005Z,18.82
2022-08-01T05:33:26.882Z,18.84
2022-08-01T05:34:26.902Z,18.89
2022-08-01T05:35:48.163Z,18.90
2022-08-01T05:36:27.910Z,18.94
2022-08-01T05:37:26.895Z,18.97
2022-08-01T05:38:26.829Z,18.99
2022-08-01T05:39:26.899Z,18.99
2022-08-01T05:40:26.788Z,19.02
2022-08-01T05:41:26.784Z,19.05
2022-08-01T05:42:26.781Z,19.07
2022-08-01T05:43:28.984Z,19.07
2022-08-01T05:44:26.995Z,19.12
2022-08-01T05:45:26.738Z,19.13
2022-08-01T05:46:27.549Z,19.17
2022-08-01T05:47:26.702Z,19.19
2022-08-01T05:48:26.702Z,19.23
2022-08-01T05:49:26.768Z,19.24
2022-08-01T05:50:26.666Z,19.27
2022-08-01T05:51:26.666Z,19.28
2022-08-01T05:52:26.716Z,19.31
2022-08-01T05:53:26.626Z,19.32
2022-08-01T05:54:26.697Z,19.35
2022-08-01T05:55:26.596Z,19.37
2022-08-01T05:56:30.455Z,19.40
2022-08-01T05:57:27.625Z,19.43
2022-08-01T05:58:26.559Z,19.49
2022-08-01T05:59:26.584Z,19.52
2022-08-01T06:00:26.599Z,19.56
2022-08-01T06:01:26.578Z,19.60
2022-08-01T06:02:26.618Z,19.63
2022-08-01T06:03:26.515Z,19.64
2022-08-01T06:04:26.525Z,19.67
2022-08-01T06:05:26.487Z,19.70
2022-08-01T06:06:26.473Z,19.72
2022-08-01T06:07:26.468Z,19.75
2022-08-01T06:08:26.444Z,19.79
2022-08-01T06:09:26.432Z,19.82
2022-08-01T06:10:26.413Z,19.83
2022-08-01T06:11:26.435Z,19.86
2022-08-01T06:12:26.546Z,19.89
2022-08-01T06:13:26.383Z,19.90
2022-08-01T06:14:26.413Z,19.93
2022-08-01T06:15:26.382Z,19.97
2022-08-01T06:16:26.373Z,20.00
2022-08-01T06:17:26.344Z,20.01
2022-08-01T06:18:26.335Z,20.04
2022-08-01T06:19:26.315Z,20.05
2022-08-01T06:20:27.270Z,20.08
2022-08-01T06:21:26.315Z,20.10
2022-08-01T06:22:26.294Z,20.12
2022-08-01T06:23:32.681Z,20.15
2022-08-01T06:24:27.270Z,20.16
2022-08-01T06:25:26.231Z,20.20
2022-08-01T06:26:26.190Z,20.23
2022-08-01T06:27:26.199Z,20.25
2022-08-01T06:28:26.169Z,20.29
2022-08-01T06:29:26.169Z,20.29
2022-08-01T06:30:26.220Z,20.34
2022-08-01T06:31:29.368Z,20.35
2022-08-01T06:32:27.995Z,20.37
2022-08-01T06:33:26.133Z,20.41
2022-08-01T06:34:26.105Z,20.42
2022-08-01T06:35:26.131Z,20.46
2022-08-01T06:36:26.080Z,20.49
2022-08-01T06:37:26.073Z,20.53
2022-08-01T06:38:26.046Z,20.54
2022-08-01T06:39:26.046Z,20.58
2022-08-01T06:40:26.049Z,20.60
2022-08-01T06:41:26.011Z,20.61
2022-08-01T06:42:25.997Z,20.63
2022-08-01T06:43:26.007Z,20.66
2022-08-01T06:44:25.975Z,20.67
2022-08-01T06:45:26.033Z,20.68
2022-08-01T06:46:30.535Z,20.72
2022-08-01T06:47:27.002Z,20.76
2022-08-01T06:48:25.914Z,20.79
2022-08-01T06:49:25.990Z,20.81
2022-08-01T06:50:25.930Z,20.83
2022-08-01T06:51:25.874Z,20.88
2022-08-01T06:52:25.905Z,20.90
2022-08-01T06:53:25.864Z,20.93
2022-08-01T06:54:25.863Z,20.97
2022-08-01T06:55:25.874Z,21.00
2022-08-01T06:56:25.825Z,21.01
2022-08-01T06:57:25.807Z,21.03
2022-08-01T06:58:30.991Z,21.08
2022-08-01T06:59:26.859Z,21.13
2022-08-01T07:00:25.785Z,21.16
2022-08-01T07:01:25.835Z,21.22
2022-08-01T07:02:25.751Z,21.27
2022-08-01T07:03:25.765Z,21.30
2022-08-01T07:04:25.765Z,21.33
2022-08-01T07:05:25.732Z,21.36
2022-08-01T07:06:25.699Z,21.38
2022-08-01T07:07:25.689Z,21.38
2022-08-01T07:08:25.694Z,21.41
2022-08-01T07:09:25.662Z,21.43
2022-08-01T07:10:25.650Z,21.46
2022-08-01T07:11:25.677Z,21.49
2022-08-01T07:12:25.704Z,21.53
2022-08-01T07:13:25.613Z,21.55
2022-08-01T07:14:26.608Z,21.56
2022-08-01T07:15:25.604Z,21.58
2022-08-01T07:16:25.575Z,21.61
2022-08-01T07:17:25.596Z,21.67
2022-08-01T07:18:26.321Z,21.70
2022-08-01T07:19:25.540Z,21.73
2022-08-01T07:20:25.520Z,21.76
2022-08-01T07:21:25.522Z,21.78
2022-08-01T07:22:26.542Z,21.83
2022-08-01T07:23:33.771Z,21.83
2022-08-01T07:24:26.918Z,21.89
2022-08-01T07:25:25.474Z,21.93
2022-08-01T07:26:25.426Z,21.96
2022-08-01T07:27:26.300Z,22.00
2022-08-01T07:28:25.428Z,22.04
2022-08-01T07:29:25.418Z,22.07
2022-08-01T07:30:25.377Z,22.09
2022-08-01T07:31:28.317Z,22.14
2022-08-01T07:32:26.356Z,22.18
2022-08-01T07:33:25.395Z,22.23
2022-08-01T07:34:25.350Z,22.26
2022-08-01T07:35:25.353Z,22.29
2022-08-01T07:36:25.338Z,22.31
2022-08-01T07:37:41.953Z,22.34
2022-08-01T07:38:26.294Z,22.39
2022-08-01T07:39:25.276Z,22.44
2022-08-01T07:40:25.267Z,22.48
2022-08-01T07:41:54.653Z,22.51
2022-08-01T07:42:26.282Z,22.54
2022-08-01T07:43:25.221Z,22.54
2022-08-01T07:44:25.203Z,22.59
2022-08-01T07:45:25.238Z,22.61
2022-08-01T07:46:25.208Z,22.61
2022-08-01T07:47:25.185Z,22.63
2022-08-01T07:48:25.194Z,22.61
2022-08-01T07:49:25.279Z,22.60
2022-08-01T07:50:25.162Z,22.60
2022-08-01T07:51:25.122Z,22.63
2022-08-01T07:52:25.104Z,22.64
2022-08-01T07:53:25.115Z,22.66
2022-08-01T07:54:32.985Z,22.66
2022-08-01T07:55:26.061Z,22.67
2022-08-01T07:56:25.061Z,22.69
2022-08-01T07:57:25.036Z,22.70
2022-08-01T07:58:25.079Z,22.70
2022-08-01T07:59:26.394Z,22.71
2022-08-01T08:00:25.011Z,22.73
2022-08-01T08:01:25.003Z,22.75
2022-08-01T08:02:25.138Z,22.76
2022-08-01T08:03:24.961Z,22.78
2022-08-01T08:04:24.954Z,22.81
2022-08-01T08:05:58.950Z,22.82
2022-08-01T08:06:25.935Z,22.84
2022-08-01T08:07:24.919Z,22.86
2022-08-01T08:08:24.907Z,22.88
2022-08-01T08:09:24.908Z,22.91
2022-08-01T08:10:24.891Z,22.91
2022-08-01T08:11:24.871Z,22.92
2022-08-01T08:12:28.887Z,22.96
2022-08-01T08:13:24.825Z,23.00
2022-08-01T08:14:32.467Z,23.03
2022-08-01T08:15:25.820Z,23.06
2022-08-01T08:16:24.787Z,23.10
2022-08-01T08:17:24.828Z,23.12
2022-08-01T08:18:24.766Z,23.14
2022-08-01T08:19:37.497Z,23.15
2022-08-01T08:20:25.760Z,23.18
2022-08-01T08:21:24.723Z,23.21
2022-08-01T08:22:24.765Z,23.18
2022-08-01T08:23:26.478Z,23.21
2022-08-01T08:24:26.193Z,23.22
2022-08-01T08:25:26.663Z,23.24
2022-08-01T08:26:24.679Z,23.22
2022-08-01T08:27:24.657Z,23.24
2022-08-01T08:28:28.113Z,23.24
2022-08-01T08:29:24.618Z,23.25
2022-08-01T08:30:24.635Z,23.29
2022-08-01T08:31:51.789Z,23.28
2022-08-01T08:32:25.584Z,23.29
2022-08-01T08:33:24.626Z,23.35
2022-08-01T08:34:24.567Z,23.37
2022-08-01T08:35:40.251Z,23.35
2022-08-01T08:36:31.131Z,23.37
2022-08-01T08:37:25.534Z,23.35
2022-08-01T08:38:28.543Z,23.35
2022-08-01T08:39:24.496Z,23.37
2022-08-01T08:40:24.493Z,23.37
2022-08-01T08:41:24.516Z,23.37
2022-08-01T08:42:24.462Z,23.37
2022-08-01T08:43:24.443Z,23.35
2022-08-01T08:44:24.471Z,23.35
2022-08-01T08:45:30.949Z,23.37
2022-08-01T08:46:28.255Z,23.38
2022-08-01T08:47:24.426Z,23.41
2022-08-01T08:48:27.660Z,23.41
2022-08-01T08:49:24.485Z,23.41
2022-08-01T08:50:24.361Z,23.41
2022-08-01T08:51:24.360Z,23.44
2022-08-01T08:52:24.349Z,23.45
2022-08-01T08:53:24.331Z,23.48
2022-08-01T08:54:30.790Z,23.55
2022-08-01T08:55:25.311Z,23.56
2022-08-01T08:56:24.287Z,23.60
2022-08-01T08:57:24.286Z,23.62
2022-08-01T08:58:30.565Z,23.64
2022-08-01T08:59:25.280Z,23.66
2022-08-01T09:00:24.288Z,23.71
2022-08-01T09:01:24.208Z,23.74
2022-08-01T09:02:24.200Z,23.78
2022-08-01T09:03:24.275Z,23.81
2022-08-01T09:07:40.047Z,23.99
2022-08-01T09:08:40.725Z,23.99
2022-08-01T09:09:41.824Z,24.02
2022-08-01T09:10:39.994Z,24.04
2022-08-01T09:11:39.984Z,24.11
2022-08-01T09:12:40.024Z,24.15
2022-08-01T09:13:45.339Z,24.19
2022-08-01T09:14:40.982Z,24.24
2022-08-01T09:15:39.937Z,24.27
2022-08-01T09:16:39.975Z,24.32
2022-08-01T09:17:39.923Z,24.36
2022-08-01T09:18:39.906Z,24.39
2022-08-01T09:19:41.540Z,24.45
2022-08-01T09:20:39.912Z,24.51
2022-08-01T09:21:39.944Z,24.52
2022-08-01T09:22:39.853Z,24.55
2022-08-01T09:23:39.840Z,24.55
2022-08-01T09:24:40.832Z,24.56
2022-08-01T09:25:46.132Z,24.63
2022-08-01T09:26:40.833Z,24.69
2022-08-01T09:27:44.138Z,24.74
2022-08-01T09:28:42.996Z,24.74
2022-08-01T09:29:41.074Z,24.77
2022-08-01T09:30:39.762Z,24.77
2022-08-01T09:31:39.753Z,24.80
2022-08-01T09:32:39.740Z,24.83
2022-08-01T09:33:39.749Z,24.83
2022-08-01T09:34:39.698Z,24.85
2022-08-01T09:35:43.319Z,24.80
2022-08-01T09:36:39.669Z,24.80
2022-08-01T09:37:39.704Z,24.82
2022-08-01T09:38:43.923Z,24.80
2022-08-01T09:39:40.653Z,24.78
2022-08-01T09:40:39.637Z,24.78
2022-08-01T09:41:40.337Z,24.82
2022-08-01T09:42:39.598Z,24.80
2022-08-01T09:43:39.622Z,24.80
2022-08-01T09:44:42.132Z,24.80
2022-08-01T09:45:41.528Z,24.78
2022-08-01T09:46:39.548Z,24.83
2022-08-01T09:47:39.650Z,24.87
2022-08-01T09:48:39.527Z,24.94
2022-08-01T09:49:50.106Z,25.00
2022-08-01T09:50:40.510Z,25.05
2022-08-01T09:51:59.144Z,25.08
2022-08-01T09:52:41.181Z,25.14
2022-08-01T09:53:39.470Z,25.22
2022-08-01T09:54:39.513Z,25.27
2022-08-01T09:55:39.424Z,25.34
2022-08-01T09:56:39.435Z,25.44
2022-08-01T09:57:39.415Z,25.48
2022-08-01T09:58:39.416Z,25.54
2022-08-01T09:59:57.364Z,25.57
2022-08-01T10:00:45.604Z,25.62
2022-08-01T10:01:40.543Z,25.60
2022-08-01T10:02:39.458Z,25.60
2022-08-01T10:03:39.483Z,25.63
2022-08-01T10:04:39.395Z,25.66
2022-08-01T10:05:39.318Z,25.66
2022-08-01T10:06:39.290Z,25.70
2022-08-01T10:07:43.659Z,25.76
2022-08-01T10:08:40.296Z,25.78
2022-08-01T10:09:40.837Z,25.78
2022-08-01T10:10:39.234Z,25.76
2022-08-01T10:11:39.263Z,25.79
2022-08-01T10:12:39.211Z,25.82
2022-08-01T10:13:40.201Z,25.86
2022-08-01T10:14:39.289Z,25.89
2022-08-01T10:15:39.172Z,25.96
2022-08-01T10:16:39.194Z,25.99
2022-08-01T10:17:50.487Z,26.03
2022-08-01T10:18:40.182Z,26.04
2022-08-01T10:19:39.153Z,26.07
2022-08-01T10:20:39.101Z,26.09
2022-08-01T10:21:56.373Z,26.12
2022-08-01T10:22:40.140Z,26.19
2022-08-01T10:23:40.715Z,26.23
2022-08-01T10:24:39.084Z,26.30
2022-08-01T10:25:42.378Z,26.34
2022-08-01T10:26:39.029Z,26.31
2022-08-01T10:27:39.598Z,26.35
2022-08-01T10:28:39.392Z,26.35
2022-08-01T10:29:46.577Z,26.37
2022-08-01T10:30:39.979Z,26.37
2022-08-01T10:31:38.998Z,26.38
2022-08-01T10:32:39.419Z,26.39
2022-08-01T10:33:51.231Z,26.39
2022-08-01T10:34:40.557Z,26.41
2022-08-01T10:35:47.567Z,26.44
2022-08-01T10:36:40.916Z,26.42
2022-08-01T10:37:52.216Z,26.44
2022-08-01T10:38:39.955Z,26.45
2022-08-01T10:39:38.884Z,26.47
2022-08-01T10:40:38.870Z,26.50
2022-08-01T10:41:41.492Z,26.54
2022-08-01T10:42:38.866Z,26.61
2022-08-01T10:43:38.847Z,26.68
2022-08-01T10:44:38.837Z,26.76
2022-08-01T10:45:38.825Z,26.84
2022-08-01T10:46:38.775Z,26.90
2022-08-01T10:47:49.788Z,26.89
2022-08-01T10:48:39.785Z,26.86
2022-08-01T10:49:38.780Z,26.94
2022-08-01T10:50:38.754Z,27.01
2022-08-01T10:51:52.059Z,27.08
2022-08-01T10:52:39.873Z,27.15
2022-08-01T10:53:42.417Z,27.21
2022-08-01T10:54:38.712Z,27.19
2022-08-01T10:55:39.707Z,27.18
2022-08-01T10:56:38.665Z,27.15
2022-08-01T10:57:38.698Z,27.18
2022-08-01T10:58:42.781Z,27.19
2022-08-01T10:59:49.764Z,27.23
2022-08-01T11:00:39.647Z,27.26
2022-08-01T11:01:38.784Z,27.26
2022-08-01T11:02:39.583Z,27.30
2022-08-01T11:03:56.878Z,27.36
2022-08-01T11:04:39.643Z,27.42
2022-08-01T11:05:38.541Z,27.48
2022-08-01T11:06:38.533Z,27.51
2022-08-01T11:07:38.582Z,27.53
2022-08-01T11:08:38.502Z,27.49
2022-08-01T11:09:38.531Z,27.46
2022-08-01T11:10:38.496Z,27.41
2022-08-01T11:11:38.500Z,27.37
2022-08-01T11:12:38.491Z,27.30
2022-08-01T11:13:38.463Z,27.27
2022-08-01T11:14:55.147Z,27.23
2022-08-01T11:15:49.902Z,27.23
2022-08-01T11:16:39.873Z,27.15
2022-08-01T11:17:42.262Z,27.09
2022-08-01T11:18:38.394Z,27.06
2022-08-01T11:19:38.579Z,27.06
2022-08-01T11:20:42.187Z,27.06
2022-08-01T11:21:58.127Z,27.06
2022-08-01T11:22:39.357Z,27.08
2022-08-01T11:23:38.325Z,27.13
2022-08-01T11:24:38.357Z,27.12
2022-08-01T11:26:06.817Z,27.12
2022-08-01T11:26:39.318Z,27.15
2022-08-01T11:27:38.313Z,27.19
2022-08-01T11:28:40.635Z,27.21
2022-08-01T11:29:39.261Z,27.24
2022-08-01T11:30:38.219Z,27.30
2022-08-01T11:31:38.465Z,27.34
2022-08-01T11:32:58.740Z,27.36
2022-08-01T11:33:39.218Z,27.38
2022-08-01T11:34:38.189Z,27.38
2022-08-01T11:35:38.212Z,27.41
2022-08-01T11:37:39.201Z,27.37
2022-08-01T11:38:38.148Z,27.36
2022-08-01T11:39:38.959Z,27.28
2022-08-01T11:40:38.183Z,27.24
2022-08-01T11:41:39.457Z,27.19
2022-08-01T11:42:38.105Z,27.13
2022-08-01T11:43:38.080Z,27.05
2022-08-01T11:44:38.176Z,27.04
2022-08-01T11:45:38.057Z,27.01
2022-08-01T11:46:38.059Z,27.00
2022-08-01T11:47:38.113Z,26.99
2022-08-01T11:48:38.022Z,26.96
2022-08-01T11:49:38.857Z,26.94
2022-08-01T11:50:38.028Z,26.94
2022-08-01T11:51:37.979Z,26.97
2022-08-01T11:52:38.040Z,26.97
2022-08-01T11:53:37.940Z,26.99
2022-08-01T11:54:37.981Z,26.99
2022-08-01T11:55:38.015Z,27.00
2022-08-01T11:56:42.728Z,27.04
2022-08-01T11:57:39.323Z,27.06
2022-08-01T11:58:37.913Z,27.09
2022-08-01T11:59:41.144Z,27.13
2022-08-01T12:00:37.885Z,27.16
2022-08-01T12:01:38.874Z,27.15
2022-08-01T12:02:37.927Z,27.15
2022-08-01T12:03:37.838Z,27.16
2022-08-01T12:04:37.866Z,27.15
2022-08-01T12:05:37.845Z,27.16
2022-08-01T12:06:38.786Z,27.15
2022-08-01T12:07:37.874Z,27.15
2022-08-01T12:08:37.843Z,27.19
2022-08-01T12:09:37.756Z,27.26
2022-08-01T12:10:49.348Z,27.28
2022-08-01T12:11:38.754Z,27.34
2022-08-01T12:12:37.839Z,27.42
2022-08-01T12:13:37.737Z,27.45
2022-08-01T12:14:37.751Z,27.48
2022-08-01T12:15:37.680Z,27.51
2022-08-01T12:16:37.715Z,27.51
2022-08-01T12:17:37.740Z,27.55
2022-08-01T12:18:37.656Z,27.59
2022-08-01T12:19:37.622Z,27.62
2022-08-01T12:20:38.218Z,27.66
2022-08-01T12:21:37.709Z,27.74
2022-08-01T12:22:37.586Z,27.75
2022-08-01T12:23:37.561Z,27.74
2022-08-01T12:24:37.597Z,27.80
2022-08-01T12:25:37.583Z,27.79
2022-08-01T12:26:37.560Z,27.75
2022-08-01T12:27:37.552Z,27.74
2022-08-01T12:28:37.581Z,27.79
2022-08-01T12:29:37.491Z,27.74
2022-08-01T12:30:37.502Z,27.80
2022-08-01T12:31:37.526Z,27.87
2022-08-01T12:32:37.473Z,27.94
2022-08-01T12:33:37.450Z,27.96
2022-08-01T12:34:37.419Z,27.98
2022-08-01T12:35:37.494Z,27.94
2022-08-01T12:36:37.484Z,27.94
2022-08-01T12:37:37.477Z,27.93
2022-08-01T12:38:37.389Z,28.01
2022-08-01T12:39:40.156Z,28.01
2022-08-01T12:40:40.842Z,28.01
2022-08-01T12:41:38.357Z,28.02
2022-08-01T12:42:37.339Z,27.96
2022-08-01T12:43:37.329Z,27.89
2022-08-01T12:44:37.352Z,27.84
2022-08-01T12:45:37.300Z,27.80
2022-08-01T12:46:40.473Z,27.81
2022-08-01T12:47:38.269Z,27.80
2022-08-01T12:48:37.246Z,27.83
2022-08-01T12:49:37.342Z,27.89
2022-08-01T12:50:37.240Z,27.93
2022-08-01T12:51:37.233Z,28.08
2022-08-01T12:52:37.244Z,28.26
2022-08-01T12:53:40.611Z,28.35
2022-08-01T12:54:37.215Z,28.53
2022-08-01T12:55:37.155Z,28.65
2022-08-01T12:56:38.195Z,28.78